createdAt,value
2023-11-17T00:00:13.701Z,57.40
2023-11-17T00:02:42.960Z,50.20
2023-11-17T00:05:11.687Z,50.13
2023-11-17T00:07:40.348Z,53.17
2023-11-17T00:10:09.386Z,54.83
2023-11-17T00:12:39.267Z,57.07
2023-11-17T00:15:09.029Z,56.60
2023-11-17T00:17:37.224Z,52.47
2023-11-17T00:20:07.158Z,51.67
2023-11-17T00:22:35.482Z,52.23
2023-11-17T00:25:04.063Z,53.57
2023-11-17T00:27:32.309Z,56.57
2023-11-17T00:30:01.919Z,55.37
2023-11-17T00:32:30.086Z,50.77
2023-11-17T00:34:58.474Z,60.33
2023-11-17T00:37:27.673Z,55.20
2023-11-17T00:39:56.578Z,64.47
2023-11-17T00:42:24.803Z,60.90
2023-11-17T00:44:53.957Z,54.23
2023-11-17T00:47:23.531Z,60.43
2023-11-17T00:49:52.771Z,60.77
2023-11-17T00:52:21.001Z,53.43
2023-11-17T00:54:50.997Z,54.97
2023-11-17T00:57:19.769Z,60.33
2023-11-17T00:59:49.010Z,62.77
2023-11-17T01:02:18.524Z,65.33
2023-11-17T01:04:48.080Z,73.40
2023-11-17T01:07:19.237Z,63.13
2023-11-17T01:09:47.486Z,63.93
2023-11-17T01:12:15.987Z,68.37
2023-11-17T01:14:44.912Z,71.37
2023-11-17T01:17:13.431Z,69.60
2023-11-17T01:19:46.515Z,68.73
2023-11-17T01:22:16.389Z,67.57
2023-11-17T01:24:44.518Z,68.67
2023-11-17T01:27:12.691Z,71.07
2023-11-17T01:29:41.175Z,66.93
2023-11-17T01:32:09.481Z,66.80
2023-11-17T01:34:38.633Z,61.37
2023-11-17T01:37:06.936Z,71.47
2023-11-17T01:39:36.968Z,64.97
2023-11-17T01:42:05.686Z,72.07
2023-11-17T01:44:34.152Z,76.07
2023-11-17T01:47:02.480Z,66.67
2023-11-17T01:49:32.227Z,72.07
2023-11-17T01:52:00.605Z,72.13
2023-11-17T01:54:28.870Z,72.77
2023-11-17T01:56:59.152Z,75.40
2023-11-17T01:59:27.634Z,75.93
2023-11-17T02:01:55.894Z,75.00
2023-11-17T02:04:24.248Z,75.03
2023-11-17T02:07:02.294Z,69.53
2023-11-17T02:09:39.079Z,72.57
2023-11-17T02:12:16.963Z,78.63
2023-11-17T02:14:49.760Z,78.10
2023-11-17T02:17:18.883Z,73.37
2023-11-17T02:19:48.271Z,76.47
2023-11-17T02:22:19.858Z,73.33
2023-11-17T02:25:02.952Z,74.23
2023-11-17T02:27:47.224Z,81.20
2023-11-17T02:30:20.936Z,69.93
2023-11-17T02:32:51.544Z,82.13
2023-11-17T02:35:20.013Z,75.83
2023-11-17T02:37:51.651Z,78.07
2023-11-17T02:40:20.950Z,71.87
2023-11-17T02:42:50.664Z,72.47
2023-11-17T02:45:21.907Z,75.90
2023-11-17T02:47:53.516Z,71.07
2023-11-17T02:50:32.627Z,71.73
2023-11-17T02:53:18.404Z,71.00
2023-11-17T02:55:47.533Z,81.80
2023-11-17T02:58:17.096Z,79.43
2023-11-17T03:00:48.425Z,75.83
2023-11-17T03:03:16.727Z,84.73
2023-11-17T03:05:44.921Z,79.23
2023-11-17T03:08:14.472Z,76.60
2023-11-17T03:10:42.640Z,79.30
2023-11-17T03:13:17.374Z,76.43
2023-11-17T03:15:48.092Z,74.43
2023-11-17T03:18:16.360Z,77.33
2023-11-17T03:20:45.359Z,77.67
2023-11-17T03:23:16.813Z,69.77
2023-11-17T03:25:44.943Z,72.53
2023-11-17T03:28:14.754Z,65.00
2023-11-17T03:30:44.260Z,55.50
2023-11-17T03:33:15.119Z,51.83
2023-11-17T03:35:43.308Z,49.17
2023-11-17T03:38:15.290Z,46.60
2023-11-17T03:40:46.702Z,53.53
2023-11-17T03:43:15.668Z,51.00
2023-11-17T03:45:50.174Z,47.67
2023-11-17T03:48:20.170Z,45.67
2023-11-17T03:50:50.234Z,51.30
2023-11-17T03:53:18.421Z,45.07
2023-11-17T03:55:47.417Z,43.40
2023-11-17T03:58:17.810Z,37.13
2023-11-17T04:00:50.427Z,36.33
2023-11-17T04:03:21.118Z,36.80
2023-11-17T04:05:49.410Z,32.83
2023-11-17T04:08:18.602Z,36.40
2023-11-17T04:10:47.246Z,32.77
2023-11-17T04:13:16.173Z,30.13
2023-11-17T04:15:44.768Z,32.40
2023-11-17T04:18:12.937Z,34.27
2023-11-17T04:20:42.594Z,33.90
2023-11-17T04:23:11.478Z,37.40
2023-11-17T04:25:40.200Z,37.17
2023-11-17T04:28:08.321Z,36.40
2023-11-17T04:30:36.610Z,41.97
2023-11-17T04:33:05.062Z,41.03
2023-11-17T04:35:33.383Z,40.00
2023-11-17T04:38:03.010Z,45.10
2023-11-17T04:40:33.068Z,42.10
2023-11-17T04:43:01.828Z,49.67
2023-11-17T04:45:37.019Z,60.27
2023-11-17T04:48:06.939Z,59.93
2023-11-17T04:50:34.156Z,65.03
2023-11-17T04:53:04.001Z,70.00
2023-11-17T04:55:32.224Z,76.57
2023-11-17T04:58:01.199Z,82.27
2023-11-17T05:00:32.524Z,75.77
2023-11-17T05:03:02.042Z,78.80
2023-11-17T05:05:30.437Z,72.93
2023-11-17T05:08:00.487Z,74.50
2023-11-17T05:10:30.514Z,71.03
2023-11-17T05:12:58.769Z,71.47
2023-11-17T05:15:27.087Z,79.50
2023-11-17T05:17:55.281Z,71.90
2023-11-17T05:20:25.576Z,75.43
2023-11-17T05:22:53.966Z,89.57
2023-11-17T05:25:25.345Z,94.80
2023-11-17T05:28:48.360Z,100.57
2023-11-17T05:31:20.051Z,100.40
2023-11-17T05:33:48.371Z,98.03
2023-11-17T05:36:17.345Z,98.10
2023-11-17T05:38:45.727Z,91.33
2023-11-17T05:41:14.449Z,87.07
2023-11-17T05:43:47.278Z,80.97
2023-11-17T05:46:16.926Z,76.47
2023-11-17T05:48:46.218Z,76.23
2023-11-17T05:51:14.400Z,70.20
2023-11-17T05:53:42.805Z,68.60
2023-11-17T05:56:12.843Z,61.67
2023-11-17T05:58:41.047Z,67.23
2023-11-17T06:01:09.632Z,60.73
2023-11-17T06:03:39.215Z,53.00
2023-11-17T06:06:07.511Z,49.97
2023-11-17T06:08:36.308Z,55.23
2023-11-17T06:11:09.957Z,52.13
2023-11-17T06:13:40.238Z,60.03
2023-11-17T06:16:09.377Z,50.73
2023-11-17T06:18:39.083Z,52.83
2023-11-17T06:21:07.639Z,55.57
2023-11-17T06:23:35.846Z,54.77
2023-11-17T06:26:05.629Z,59.57
2023-11-17T06:28:33.854Z,59.50
2023-11-17T06:31:02.327Z,57.83
2023-11-17T06:33:30.498Z,65.30
2023-11-17T06:36:04.844Z,63.97
2023-11-17T06:38:34.733Z,64.50
2023-11-17T06:41:04.292Z,57.27
2023-11-17T06:43:32.585Z,63.33
2023-11-17T06:46:01.291Z,54.30
2023-11-17T06:48:30.171Z,59.83
2023-11-17T06:50:58.774Z,53.77
2023-11-17T06:53:30.404Z,58.20
2023-11-17T06:55:59.349Z,57.20
2023-11-17T06:58:27.628Z,58.93
2023-11-17T07:00:56.207Z,63.00
2023-11-17T07:03:24.475Z,60.37
2023-11-17T07:05:52.858Z,65.37
2023-11-17T07:08:22.622Z,66.00
2023-11-17T07:10:53.133Z,66.37
2023-11-17T07:13:21.499Z,69.37
2023-11-17T07:15:49.699Z,70.77
2023-11-17T07:18:18.387Z,69.57
2023-11-17T07:20:46.659Z,65.30
2023-11-17T07:23:15.063Z,63.13
2023-11-17T07:25:46.526Z,68.03
2023-11-17T07:28:17.050Z,68.63
2023-11-17T07:30:45.618Z,77.90
2023-11-17T07:33:17.915Z,72.13
2023-11-17T07:35:46.644Z,67.17
2023-11-17T07:38:14.983Z,71.30
2023-11-17T07:40:44.196Z,76.53
2023-11-17T07:43:12.473Z,77.13
2023-11-17T07:45:42.113Z,72.90
2023-11-17T07:48:10.875Z,72.27
2023-11-17T07:50:41.366Z,73.73
2023-11-17T07:53:10.693Z,79.53
2023-11-17T07:55:38.952Z,84.40
2023-11-17T07:58:07.229Z,76.77
2023-11-17T08:00:35.793Z,85.63
2023-11-17T08:03:05.965Z,74.93
2023-11-17T08:05:34.856Z,69.90
2023-11-17T08:08:03.068Z,74.10
2023-11-17T08:10:31.365Z,72.87
2023-11-17T08:12:59.715Z,78.53
2023-11-17T08:15:30.318Z,72.60
2023-11-17T08:17:58.643Z,70.90
2023-11-17T08:20:32.428Z,73.27
2023-11-17T08:23:01.085Z,74.80
2023-11-17T08:25:30.901Z,81.33
2023-11-17T08:27:59.450Z,83.50
2023-11-17T08:30:33.722Z,80.13
2023-11-17T08:33:08.484Z,80.87
2023-11-17T08:35:39.446Z,88.93
2023-11-17T08:38:08.317Z,85.83
2023-11-17T08:40:36.505Z,79.93
2023-11-17T08:43:04.784Z,76.87
2023-11-17T08:45:33.827Z,80.17
2023-11-17T08:48:04.820Z,95.43
2023-11-17T08:50:33.329Z,77.20
2023-11-17T08:53:02.904Z,86.63
2023-11-17T08:55:31.221Z,79.17
2023-11-17T08:57:59.612Z,84.13
2023-11-17T09:00:27.859Z,85.87
2023-11-17T09:02:56.271Z,74.53
2023-11-17T09:05:25.549Z,81.87
2023-11-17T09:07:54.131Z,74.60
2023-11-17T09:10:27.718Z,74.37
2023-11-17T09:12:56.219Z,76.67
2023-11-17T09:15:30.095Z,77.20
2023-11-17T09:17:58.312Z,63.63
2023-11-17T09:20:29.417Z,65.40
2023-11-17T09:22:57.678Z,75.93
2023-11-17T09:25:28.072Z,61.13
2023-11-17T09:27:58.031Z,62.67
2023-11-17T09:30:29.671Z,56.33
2023-11-17T09:33:00.881Z,56.67
2023-11-17T09:35:29.530Z,54.73
2023-11-17T09:38:01.273Z,52.40
2023-11-17T09:40:34.587Z,47.23
2023-11-17T09:43:12.526Z,50.27
2023-11-17T09:45:41.491Z,36.70
2023-11-17T09:48:10.256Z,38.30
2023-11-17T09:50:42.604Z,36.67
2023-11-17T09:53:14.148Z,37.63
2023-11-17T09:55:45.678Z,38.63
2023-11-17T09:58:15.378Z,35.80
2023-11-17T10:00:46.605Z,36.90
2023-11-17T10:03:18.810Z,34.93
2023-11-17T10:05:48.899Z,33.73
2023-11-17T10:08:18.839Z,27.50
2023-11-17T10:10:49.598Z,30.37
2023-11-17T10:13:21.913Z,27.73
2023-11-17T10:15:54.883Z,24.30
2023-11-17T10:18:27.418Z,29.83
2023-11-17T10:20:58.852Z,29.30
2023-11-17T10:23:27.754Z,27.30
2023-11-17T10:25:57.963Z,26.27
2023-11-17T10:28:28.666Z,34.60
2023-11-17T10:31:02.500Z,27.07
2023-11-17T10:33:31.922Z,24.00
2023-11-17T10:36:05.381Z,25.33
2023-11-17T10:38:37.074Z,29.60
2023-11-17T10:41:20.283Z,28.33
2023-11-17T10:43:50.694Z,24.50
2023-11-17T10:46:22.764Z,22.00
2023-11-17T10:48:52.371Z,17.83
2023-11-17T10:51:23.111Z,17.27
2023-11-17T10:54:05.301Z,17.83
2023-11-17T10:56:35.740Z,12.87
2023-11-17T10:59:05.826Z,15.13
2023-11-17T11:01:37.158Z,15.07
2023-11-17T11:04:10.808Z,12.30
2023-11-17T11:06:40.024Z,9.30
2023-11-17T11:09:09.224Z,10.50
2023-11-17T11:11:38.895Z,13.13
2023-11-17T11:14:07.070Z,17.07
2023-11-17T11:16:35.581Z,11.13
2023-11-17T11:19:04.889Z,13.73
2023-11-17T11:21:34.997Z,13.87
2023-11-17T11:24:06.378Z,17.50
2023-11-17T11:26:36.691Z,11.63
2023-11-17T11:29:07.215Z,15.20
2023-11-17T11:31:38.505Z,11.50
2023-11-17T11:34:07.749Z,14.83
2023-11-17T11:36:36.062Z,14.53
2023-11-17T11:39:04.830Z,11.33
2023-11-17T11:41:35.296Z,11.63
2023-11-17T11:44:05.017Z,14.37
2023-11-17T11:46:33.888Z,12.23
2023-11-17T11:49:05.848Z,13.63
2023-11-17T11:51:43.674Z,10.40
2023-11-17T11:54:12.477Z,7.37
2023-11-17T11:56:44.317Z,7.07
2023-11-17T11:59:14.860Z,9.33
2023-11-17T12:01:45.277Z,9.90
2023-11-17T12:04:13.877Z,9.73
2023-11-17T12:06:49.004Z,7.50
2023-11-17T12:09:22.328Z,10.00
2023-11-17T12:11:52.207Z,13.93
2023-11-17T12:14:30.604Z,7.97
2023-11-17T12:17:00.019Z,6.33
2023-11-17T12:19:31.189Z,7.37
2023-11-17T12:22:01.805Z,8.37
2023-11-17T12:24:49.763Z,8.30
2023-11-17T12:27:18.524Z,9.57
2023-11-17T12:29:48.239Z,6.83
2023-11-17T12:32:20.783Z,7.13
2023-11-17T12:34:50.683Z,11.47
2023-11-17T12:37:21.424Z,7.77
2023-11-17T12:39:50.897Z,7.13
2023-11-17T12:42:23.233Z,8.53
2023-11-17T12:44:52.816Z,8.80
2023-11-17T12:47:39.897Z,6.77
2023-11-17T12:53:50.867Z,13.33
2023-11-17T12:56:22.212Z,5.97
2023-11-17T12:58:51.109Z,6.87
2023-11-17T13:01:21.938Z,5.90
2023-11-17T13:03:52.761Z,6.90
2023-11-17T13:06:27.408Z,12.60
2023-11-17T13:12:36.409Z,9.30
2023-11-17T13:15:10.538Z,5.33
2023-11-17T13:17:41.534Z,7.60
2023-11-17T13:20:15.533Z,7.00
2023-11-17T13:22:45.396Z,6.23
2023-11-17T13:25:13.808Z,6.07
2023-11-17T13:27:45.144Z,5.47
2023-11-17T13:30:14.518Z,3.87
2023-11-17T13:32:57.978Z,3.73
2023-11-17T13:35:29.120Z,4.60
2023-11-17T13:38:02.155Z,3.27
2023-11-17T13:40:33.995Z,4.10
2023-11-17T13:43:23.427Z,3.33
2023-11-17T13:45:52.685Z,3.40
2023-11-17T13:48:28.013Z,3.40
2023-11-17T13:50:59.014Z,3.70
2023-11-17T13:53:31.340Z,3.93
2023-11-17T13:56:03.448Z,3.63
2023-11-17T13:59:11.414Z,3.87
2023-11-17T14:01:39.732Z,5.97
2023-11-17T14:04:09.641Z,4.03
2023-11-17T14:06:39.043Z,4.60
2023-11-17T14:09:10.197Z,5.47
2023-11-17T14:11:39.765Z,4.23
2023-11-17T14:14:07.986Z,4.60
2023-11-17T14:16:36.172Z,6.73
2023-11-17T14:19:04.370Z,7.03
2023-11-17T14:21:35.310Z,7.30
2023-11-17T14:24:03.514Z,10.13
2023-11-17T14:26:32.842Z,9.87
2023-11-17T14:29:02.083Z,8.33
2023-11-17T14:31:31.297Z,7.50
2023-11-17T14:33:59.536Z,7.93
2023-11-17T14:36:29.564Z,6.13
2023-11-17T14:39:00.297Z,6.70
2023-11-17T14:45:11.832Z,11.93
2023-11-17T14:47:40.177Z,7.00
2023-11-17T14:50:15.058Z,7.83
2023-11-17T14:52:44.402Z,14.23
2023-11-17T14:55:18.500Z,6.73
2023-11-17T14:57:47.280Z,5.03
2023-11-17T15:00:24.144Z,3.40
2023-11-17T15:02:53.991Z,2.90
2023-11-17T15:05:22.457Z,3.20
2023-11-17T15:07:51.498Z,2.60
2023-11-17T15:10:21.277Z,6.00
2023-11-17T15:12:50.451Z,9.20
2023-11-17T15:15:43.194Z,6.97
2023-11-17T15:18:13.793Z,7.83
2023-11-17T15:20:44.844Z,4.43
2023-11-17T15:23:13.471Z,2.50
2023-11-17T15:25:43.323Z,3.90
2023-11-17T15:28:15.891Z,4.70
2023-11-17T15:30:48.181Z,3.20
2023-11-17T15:33:17.673Z,4.30
2023-11-17T15:35:46.358Z,2.67
2023-11-17T15:38:14.817Z,2.73
2023-11-17T15:40:45.625Z,2.77
2023-11-17T15:43:34.953Z,3.57
2023-11-17T15:46:23.520Z,3.33
2023-11-17T15:48:58.273Z,3.40
2023-11-17T15:51:26.563Z,3.10
2023-11-17T15:53:54.802Z,3.37
2023-11-17T15:57:00.193Z,4.03
2023-11-17T15:59:29.755Z,3.67
2023-11-17T16:02:18.574Z,3.93
2023-11-17T16:04:50.714Z,3.97
2023-11-17T16:07:19.583Z,5.60
2023-11-17T16:09:48.587Z,4.70
2023-11-17T16:12:16.833Z,5.00
2023-11-17T16:14:50.411Z,10.30
2023-11-17T16:17:58.073Z,5.00
2023-11-17T16:20:32.348Z,6.10
2023-11-17T16:23:01.724Z,6.33
2023-11-17T16:25:33.639Z,5.53
2023-11-17T16:28:10.047Z,7.77
2023-11-17T16:30:41.220Z,7.00
2023-11-17T16:33:11.267Z,7.27
2023-11-17T16:35:40.799Z,7.03
2023-11-17T16:38:11.650Z,12.03
2023-11-17T16:41:01.713Z,7.50
2023-11-17T16:43:31.422Z,10.60
2023-11-17T16:46:02.215Z,9.13
2023-11-17T16:48:30.540Z,9.67
2023-11-17T16:51:01.927Z,12.60
2023-11-17T16:53:30.679Z,16.70
2023-11-17T16:56:00.059Z,16.43
2023-11-17T16:58:29.347Z,18.83
2023-11-17T17:00:58.536Z,18.50
2023-11-17T17:03:28.367Z,17.53
2023-11-17T17:05:58.948Z,16.17
2023-11-17T17:08:31.073Z,11.83
2023-11-17T17:11:00.317Z,18.23
2023-11-17T17:13:28.629Z,18.60
2023-11-17T17:15:56.904Z,17.37
2023-11-17T17:18:25.808Z,15.33
2023-11-17T17:20:55.558Z,17.90
2023-11-17T17:23:24.695Z,14.80
2023-11-17T17:25:55.283Z,15.80
2023-11-17T17:28:24.532Z,16.93
2023-11-17T17:30:54.022Z,17.80
2023-11-17T17:33:22.220Z,19.40
2023-11-17T17:35:50.404Z,17.40
2023-11-17T17:38:19.995Z,21.20
2023-11-17T17:40:48.333Z,20.33
2023-11-17T17:43:16.539Z,17.80
2023-11-17T17:45:45.767Z,19.00
2023-11-17T17:48:14.776Z,20.23
2023-11-17T17:50:43.239Z,18.87
2023-11-17T17:53:12.561Z,19.63
2023-11-17T17:55:42.566Z,22.47
2023-11-17T17:58:11.462Z,22.23
2023-11-17T18:00:41.171Z,26.53
2023-11-17T18:03:09.658Z,23.80
2023-11-17T18:05:38.104Z,20.03
2023-11-17T18:08:07.614Z,23.87
2023-11-17T18:10:35.983Z,21.47
2023-11-17T18:13:05.705Z,23.97
2023-11-17T18:15:35.150Z,24.83
2023-11-17T18:18:03.655Z,31.63
2023-11-17T18:20:33.211Z,29.03
2023-11-17T18:23:01.468Z,26.07
2023-11-17T18:25:30.244Z,25.50
2023-11-17T18:27:58.470Z,21.73
2023-11-17T18:30:28.232Z,30.80
2023-11-17T18:32:56.440Z,29.30
2023-11-17T18:35:26.595Z,27.73
2023-11-17T18:37:56.123Z,20.87
2023-11-17T18:40:26.803Z,23.27
2023-11-17T18:42:59.138Z,24.77
2023-11-17T18:45:30.042Z,37.57
2023-11-17T18:47:59.791Z,32.67
2023-11-17T18:50:29.408Z,31.30
2023-11-17T18:52:58.524Z,31.13
2023-11-17T18:55:27.384Z,29.77
2023-11-17T18:57:55.603Z,30.77
2023-11-17T19:00:23.951Z,34.80
2023-11-17T19:02:54.033Z,34.23
2023-11-17T19:05:24.728Z,36.70
2023-11-17T19:07:55.062Z,39.43
2023-11-17T19:10:25.931Z,38.70
2023-11-17T19:12:56.949Z,31.13
2023-11-17T19:15:25.261Z,38.40
2023-11-17T19:17:57.297Z,34.03
2023-11-17T19:20:28.064Z,36.87
2023-11-17T19:22:56.525Z,33.60
2023-11-17T19:25:25.240Z,36.77
2023-11-17T19:27:53.541Z,34.10
2023-11-17T19:30:22.609Z,31.83
2023-11-17T19:32:54.892Z,35.97
2023-11-17T19:35:26.852Z,35.70
2023-11-17T19:37:55.306Z,37.67
2023-11-17T19:40:23.595Z,39.60
2023-11-17T19:42:52.228Z,38.07
2023-11-17T19:45:21.968Z,38.67
2023-11-17T19:47:51.346Z,40.10
2023-11-17T19:50:29.470Z,40.07
2023-11-17T19:52:59.146Z,41.03
2023-11-17T19:55:27.744Z,36.60
2023-11-17T19:57:58.064Z,40.00
2023-11-17T20:00:30.008Z,41.30
2023-11-17T20:02:58.527Z,37.80
2023-11-17T20:05:29.612Z,35.50
2023-11-17T20:08:03.215Z,38.27
2023-11-17T20:10:31.881Z,37.70
2023-11-17T20:13:01.540Z,37.77
2023-11-17T20:15:31.947Z,40.63
2023-11-17T20:18:00.383Z,35.10
2023-11-17T20:20:29.832Z,35.20
2023-11-17T20:22:59.838Z,34.37
2023-11-17T20:25:29.477Z,36.43
2023-11-17T20:27:59.074Z,32.40
2023-11-17T20:30:27.710Z,34.50
2023-11-17T20:32:58.966Z,43.07
2023-11-17T20:35:29.483Z,35.60
2023-11-17T20:37:59.478Z,37.93
2023-11-17T20:40:28.954Z,39.90
2023-11-17T20:42:58.957Z,36.83
2023-11-17T20:45:27.456Z,40.13
2023-11-17T20:47:57.412Z,34.20
2023-11-17T20:50:28.247Z,33.20
2023-11-17T20:53:00.526Z,32.50
2023-11-17T20:55:30.055Z,35.93
2023-11-17T20:57:58.760Z,39.67
2023-11-17T21:00:27.185Z,42.40
2023-11-17T21:02:58.814Z,43.17
2023-11-17T21:05:29.545Z,48.80
2023-11-17T21:07:58.427Z,52.70
2023-11-17T21:10:31.644Z,49.17
2023-11-17T21:13:01.701Z,52.77
2023-11-17T21:15:32.436Z,55.63
2023-11-17T21:18:01.304Z,53.00
2023-11-17T21:20:33.816Z,53.30
2023-11-17T21:23:03.954Z,55.43
2023-11-17T21:25:34.723Z,57.20
2023-11-17T21:28:05.558Z,56.93
2023-11-17T21:30:34.006Z,57.40
2023-11-17T21:33:02.236Z,58.40
2023-11-17T21:35:32.480Z,56.40
2023-11-17T21:38:00.818Z,50.77
2023-11-17T21:40:29.253Z,58.53
2023-11-17T21:42:58.009Z,54.97
2023-11-17T21:45:27.756Z,57.37
2023-11-17T21:47:57.388Z,59.37
2023-11-17T21:50:26.805Z,64.30
2023-11-17T21:52:56.652Z,59.77
2023-11-17T21:55:25.200Z,64.63
2023-11-17T21:57:55.509Z,62.90
2023-11-17T22:00:28.075Z,56.30
2023-11-17T22:02:57.872Z,51.93
2023-11-17T22:05:26.909Z,51.90
2023-11-17T22:07:56.358Z,50.43
2023-11-17T22:10:24.774Z,49.23
2023-11-17T22:12:53.546Z,48.60
2023-11-17T22:15:21.928Z,44.27
2023-11-17T22:17:50.943Z,70.00
2023-11-17T22:20:22.167Z,57.80
2023-11-17T22:22:53.723Z,51.37
2023-11-17T22:25:23.532Z,50.50
2023-11-17T22:27:55.800Z,50.07
2023-11-17T22:30:26.872Z,49.43
2023-11-17T22:32:57.613Z,51.50
2023-11-17T22:35:29.020Z,49.63
2023-11-17T22:37:57.480Z,47.47
2023-11-17T22:40:25.877Z,44.00
2023-11-17T22:42:54.861Z,45.97
2023-11-17T22:45:23.961Z,47.20
2023-11-17T22:47:53.222Z,44.00
2023-11-17T22:50:22.976Z,52.80
2023-11-17T22:52:53.897Z,44.23
2023-11-17T22:55:22.837Z,46.93
2023-11-17T22:57:51.558Z,47.30
2023-11-17T23:00:42.345Z,46.47
2023-11-17T23:03:11.310Z,47.87
2023-11-17T23:05:43.270Z,45.83
2023-11-17T23:08:14.366Z,45.13
2023-11-17T23:10:43.260Z,43.50
2023-11-17T23:13:12.883Z,52.13
2023-11-17T23:15:41.504Z,42.63
2023-11-17T23:18:10.917Z,46.53
2023-11-17T23:20:39.222Z,48.60
2023-11-17T23:23:07.999Z,50.67
2023-11-17T23:25:38.249Z,42.90
2023-11-17T23:28:07.392Z,38.13
2023-11-17T23:30:36.418Z,43.97
2023-11-17T23:33:09.276Z,46.17
2023-11-17T23:35:38.097Z,41.20
2023-11-17T23:38:06.537Z,41.53
2023-11-17T23:40:35.674Z,42.43
2023-11-17T23:43:05.665Z,41.10
2023-11-17T23:45:33.958Z,36.60
2023-11-17T23:48:03.786Z,40.83
2023-11-17T23:50:34.083Z,37.07
2023-11-17T23:53:04.688Z,38.73
2023-11-17T23:56:12.147Z,35.67
2023-11-17T23:58:41.748Z,34.50
